Time;durP1;ratioP1;P1;durP2;ratioP2;P2;SDS_P1;SDS_P2;PMS_P1;PMS_P2;Temp;Humidity;BMP_temperature;BMP_pressure;BME280_temperature;BME280_humidity;BME280_pressure;Samples;Min_cycle;Max_cycle;Signal;HPM_P1;HPM_P2
2022/10/30 00:00:26;;;;;;;;;;;;;;;16.07;40.50;95869.66;4999053;28;20211;-68
2022/10/30 00:02:52;;;;;;;;;;;;;;;16.08;40.64;95868.66;4998352;28;20056;-67
2022/10/30 00:05:18;;;;;;;;;;;;;;;16.10;40.61;95863.88;4998245;28;19971;-68
2022/10/30 00:07:44;;;;;;;;;;;;;;;16.05;40.62;95861.00;4998750;28;19997;-67
2022/10/30 00:10:09;;;;;;;;;;;;;;;16.06;40.61;95865.34;4997428;28;20013;-68
2022/10/30 00:12:34;;;;;;;;;;;;;;;16.10;40.57;95861.19;4996920;28;20029;-68
2022/10/30 00:15:00;;;;;;;;;;;;;;;16.05;40.58;95858.31;4998781;28;20292;-67
2022/10/30 00:17:25;;;;;;;;;;;;;;;16.05;40.87;95863.69;4996335;28;19997;-67
2022/10/30 00:19:50;;;;;;;;;;;;;;;16.02;41.15;95861.41;4996983;28;20142;-67
2022/10/30 00:22:15;;;;;;;;;;;;;;;15.98;41.02;95867.19;4996974;28;20087;-68
2022/10/30 00:24:40;;;;;;;;;;;;;;;16.03;40.48;95863.91;4997742;28;19992;-67
2022/10/30 00:27:06;;;;;;;;;;;;;;;15.98;40.54;95864.50;4996913;28;19986;-67
2022/10/30 00:29:31;;;;;;;;;;;;;;;16.02;40.66;95859.56;4996548;28;19983;-67
2022/10/30 00:31:56;;;;;;;;;;;;;;;16.07;40.31;95861.59;4998390;28;19994;-68
2022/10/30 00:34:21;;;;;;;;;;;;;;;16.08;40.49;95857.91;4996737;28;20005;-67
2022/10/30 00:36:47;;;;;;;;;;;;;;;15.95;40.83;95851.50;4997557;28;19982;-67
2022/10/30 00:39:12;;;;;;;;;;;;;;;15.93;40.87;95852.72;4996728;28;20044;-68
2022/10/30 00:41:40;;;;;;;;;;;;;;;15.84;41.20;95849.44;4997481;28;19977;-68
2022/10/30 00:44:24;;;;;;;;;;;;;;;15.88;41.06;95840.75;4997519;28;19977;-67
2022/10/30 00:46:50;;;;;;;;;;;;;;;15.95;40.71;95840.75;4997755;28;19989;-67
2022/10/30 00:49:15;;;;;;;;;;;;;;;15.84;41.04;95844.09;4997619;28;20623;-67
2022/10/30 00:51:41;;;;;;;;;;;;;;;15.81;41.07;95836.44;4997196;28;20067;-67
2022/10/30 00:54:06;;;;;;;;;;;;;;;15.78;41.20;95835.00;4992478;28;19997;-67
2022/10/30 00:56:31;;;;;;;;;;;;;;;15.77;41.35;95833.31;4998518;28;20021;-68
2022/10/30 00:58:57;;;;;;;;;;;;;;;15.52;42.08;95827.69;4994215;28;20450;-68
2022/10/30 01:01:23;;;;;;;;;;;;;;;15.28;42.54;95827.25;4981070;28;20427;-67
2022/10/30 01:03:49;;;;;;;;;;;;;;;15.42;42.15;95823.56;4998289;28;19997;-68
2022/10/30 01:06:14;;;;;;;;;;;;;;;15.41;41.97;95824.59;4981125;28;19993;-67
2022/10/30 01:08:39;;;;;;;;;;;;;;;15.35;42.06;95820.03;4999118;28;19976;-68
2022/10/30 01:11:05;;;;;;;;;;;;;;;15.31;42.35;95818.78;4993610;28;20010;-67
2022/10/30 01:13:30;;;;;;;;;;;;;;;15.21;42.34;95820.03;4997542;28;20558;-67
2022/10/30 01:16:15;;;;;;;;;;;;;;;15.31;42.10;95829.53;4980056;28;19986;-67
2022/10/30 01:18:45;;;;;;;;;;;;;;;15.22;42.19;95827.03;4998350;28;20063;-67
2022/10/30 01:21:11;;;;;;;;;;;;;;;15.18;42.11;95823.09;4981393;28;20427;-68
2022/10/30 01:24:02;;;;;;;;;;;;;;;15.21;42.19;95832.59;4995249;28;20068;-67
2022/10/30 01:26:31;;;;;;;;;;;;;;;15.21;42.25;95824.56;4980072;28;20005;-67
2022/10/30 01:29:12;;;;;;;;;;;;;;;15.18;42.34;95824.94;4981647;28;20523;-67
2022/10/30 01:31:43;;;;;;;;;;;;;;;15.25;41.87;95833.84;4995296;28;20074;-68
2022/10/30 01:34:18;;;;;;;;;;;;;;;15.26;41.85;95827.44;4980628;28;20196;-67
2022/10/30 01:37:03;;;;;;;;;;;;;;;15.35;41.52;95831.59;4995242;28;20109;-67
2022/10/30 01:39:31;;;;;;;;;;;;;;;15.41;41.55;95834.50;4995801;28;20187;-67
2022/10/30 01:41:56;;;;;;;;;;;;;;;15.29;41.21;95828.88;4979043;28;20447;-67
2022/10/30 01:44:24;;;;;;;;;;;;;;;15.47;41.00;95831.00;4995652;28;20044;-67
2022/10/30 01:47:08;;;;;;;;;;;;;;;15.42;40.55;95831.63;4994519;28;20441;-67
2022/10/30 01:49:42;;;;;;;;;;;;;;;15.38;40.63;95829.53;4996177;28;20212;-67
2022/10/30 01:52:10;;;;;;;;;;;;;;;15.46;40.68;95834.69;4995441;28;20005;-67
2022/10/30 01:55:05;;;;;;;;;;;;;;;15.55;40.77;95828.13;4998125;28;20001;-68
2022/10/30 01:57:33;;;;;;;;;;;;;;;15.53;40.49;95832.84;4983683;28;19971;-67
2022/10/30 02:00:00;;;;;;;;;;;;;;;15.63;40.30;95832.50;4995841;28;20266;-68
2022/10/30 02:02:25;;;;;;;;;;;;;;;15.70;39.97;95837.84;4991573;28;20636;-67
2022/10/30 02:04:50;;;;;;;;;;;;;;;15.68;40.05;95834.56;4997604;28;19980;-67
2022/10/30 02:07:15;;;;;;;;;;;;;;;15.71;40.14;95834.97;4998585;28;20025;-67
2022/10/30 02:09:41;;;;;;;;;;;;;;;15.85;39.73;95835.78;4994957;28;20358;-68
2022/10/30 02:12:06;;;;;;;;;;;;;;;15.87;39.66;95835.59;4999038;28;20043;-67
2022/10/30 02:14:34;;;;;;;;;;;;;;;15.74;39.99;95839.13;4983405;28;20596;-67
2022/10/30 02:16:59;;;;;;;;;;;;;;;15.65;40.29;95830.44;5000669;28;19984;-67
2022/10/30 02:19:24;;;;;;;;;;;;;;;15.64;40.30;95833.31;4984273;28;19994;-67
2022/10/30 02:21:50;;;;;;;;;;;;;;;15.70;40.15;95827.13;5001829;28;19981;-67
2022/10/30 02:24:15;;;;;;;;;;;;;;;15.58;40.30;95826.91;5001402;28;20339;-67
2022/10/30 02:26:40;;;;;;;;;;;;;;;15.54;40.54;95829.13;5001452;28;19994;-67
2022/10/30 02:29:05;;;;;;;;;;;;;;;15.45;41.02;95827.69;4999663;28;20200;-67
2022/10/30 02:31:31;;;;;;;;;;;;;;;15.41;41.14;95829.13;4998843;28;20052;-67
2022/10/30 02:33:56;;;;;;;;;;;;;;;15.36;41.21;95827.88;4999588;28;20016;-67
2022/10/30 02:36:21;;;;;;;;;;;;;;;15.32;41.37;95825.81;4998827;28;19978;-68
2022/10/30 02:38:46;;;;;;;;;;;;;;;15.30;41.26;95819.84;4998407;28;19997;-68
2022/10/30 02:41:12;;;;;;;;;;;;;;;15.26;41.46;95813.22;4998730;28;20465;-67
2022/10/30 02:43:37;;;;;;;;;;;;;;;15.23;41.42;95809.91;4999603;28;20301;-68
2022/10/30 02:46:02;;;;;;;;;;;;;;;15.21;41.36;95814.66;4991983;28;20327;-68
2022/10/30 02:48:29;;;;;;;;;;;;;;;15.12;41.62;95805.13;5000084;28;19970;-67
2022/10/30 02:50:57;;;;;;;;;;;;;;;15.07;41.58;95795.03;4997569;28;20010;-67
2022/10/30 02:53:22;;;;;;;;;;;;;;;15.02;41.70;95794.81;4999014;28;20080;-67
2022/10/30 02:55:48;;;;;;;;;;;;;;;14.97;41.92;95800.78;4999216;28;20093;-67
2022/10/30 02:58:13;;;;;;;;;;;;;;;14.97;41.89;95808.84;4998491;28;20413;-67
2022/10/30 03:00:38;;;;;;;;;;;;;;;14.91;42.30;95801.59;4998703;28;20365;-68
2022/10/30 03:03:03;;;;;;;;;;;;;;;14.91;42.02;95804.25;4999041;28;19994;-67
2022/10/30 03:05:29;;;;;;;;;;;;;;;14.85;42.19;95797.84;4999070;28;19974;-67
2022/10/30 03:07:54;;;;;;;;;;;;;;;14.83;42.43;95801.75;4999609;28;20166;-67
2022/10/30 03:10:19;;;;;;;;;;;;;;;14.84;41.78;95804.25;4999496;28;20001;-67
2022/10/30 03:12:44;;;;;;;;;;;;;;;14.88;41.97;95809.19;4998040;28;19982;-67
2022/10/30 03:15:10;;;;;;;;;;;;;;;14.95;41.67;95802.81;4999442;28;20656;-67
2022/10/30 03:17:35;;;;;;;;;;;;;;;14.96;41.47;95801.78;4998192;28;20444;-67
2022/10/30 03:20:00;;;;;;;;;;;;;;;14.97;41.42;95800.78;4999308;28;19970;-67
2022/10/30 03:22:25;;;;;;;;;;;;;;;14.95;41.26;95807.34;4998413;28;19993;-67
2022/10/30 03:24:51;;;;;;;;;;;;;;;14.94;41.28;95803.88;4999091;28;20643;-67
2022/10/30 03:27:16;;;;;;;;;;;;;;;14.96;41.47;95798.31;4998063;28;20007;-68
2022/10/30 03:29:41;;;;;;;;;;;;;;;14.94;41.78;95795.00;4998536;28;20296;-67
2022/10/30 03:32:09;;;;;;;;;;;;;;;14.90;41.40;95802.63;4998911;28;20756;-67
2022/10/30 03:34:35;;;;;;;;;;;;;;;14.87;41.57;95803.00;4998580;28;19998;-67
2022/10/30 03:37:00;;;;;;;;;;;;;;;14.88;41.51;95801.13;4997419;28;20497;-67
2022/10/30 03:39:25;;;;;;;;;;;;;;;14.80;41.46;95797.63;4998846;28;20043;-67
2022/10/30 03:41:50;;;;;;;;;;;;;;;14.77;41.56;95798.03;4997089;28;20049;-67
2022/10/30 03:44:16;;;;;;;;;;;;;;;14.74;41.45;95802.94;4998490;28;19981;-67
2022/10/30 03:46:41;;;;;;;;;;;;;;;14.64;41.79;95801.44;4997936;28;19989;-67
2022/10/30 03:49:06;;;;;;;;;;;;;;;14.58;41.79;95799.56;4998222;28;19974;-67
2022/10/30 03:51:31;;;;;;;;;;;;;;;14.51;41.92;95810.25;4997671;28;20056;-67
2022/10/30 03:53:57;;;;;;;;;;;;;;;14.41;42.15;95794.53;4998272;28;19990;-67
2022/10/30 03:56:22;;;;;;;;;;;;;;;14.30;42.51;95797.78;4997913;28;20019;-68
2022/10/30 03:58:47;;;;;;;;;;;;;;;14.25;42.51;95811.78;4997545;28;20331;-67
2022/10/30 04:01:12;;;;;;;;;;;;;;;14.20;42.47;95801.63;4998016;28;19985;-68
2022/10/30 04:03:37;;;;;;;;;;;;;;;14.16;42.55;95805.72;4998464;28;20093;-67
2022/10/30 04:06:03;;;;;;;;;;;;;;;14.10;42.72;95806.50;4997059;28;20400;-67
2022/10/30 04:08:28;;;;;;;;;;;;;;;14.06;43.08;95818.63;4998938;28;19970;-67
2022/10/30 04:10:53;;;;;;;;;;;;;;;13.95;43.31;95807.44;4996775;28;20063;-67
2022/10/30 04:13:21;;;;;;;;;;;;;;;13.95;43.45;95804.75;4998966;28;19985;-68
2022/10/30 04:15:48;;;;;;;;;;;;;;;13.83;42.84;95800.94;4996709;28;20030;-67
2022/10/30 04:18:15;;;;;;;;;;;;;;;13.86;42.96;95803.22;4997586;28;19998;-67
2022/10/30 04:20:40;;;;;;;;;;;;;;;13.77;43.04;95799.06;4996922;28;19978;-68
2022/10/30 04:23:06;;;;;;;;;;;;;;;13.74;42.92;95799.44;4997178;28;20012;-68
2022/10/30 04:25:32;;;;;;;;;;;;;;;13.66;43.17;95803.06;4997710;28;19969;-67
2022/10/30 04:27:57;;;;;;;;;;;;;;;13.64;42.96;95799.75;4996130;28;19990;-67
2022/10/30 04:30:45;;;;;;;;;;;;;;;13.55;43.16;95804.41;4996574;28;19989;-67
2022/10/30 04:33:11;;;;;;;;;;;;;;;13.53;43.21;95798.44;4997115;28;19985;-68
2022/10/30 04:35:36;;;;;;;;;;;;;;;13.40;43.11;95805.31;4996973;28;19990;-68
2022/10/30 04:38:05;;;;;;;;;;;;;;;13.35;43.31;95801.56;4996364;28;20001;-68
2022/10/30 04:40:31;;;;;;;;;;;;;;;13.28;43.51;95801.50;4997758;28;19981;-68
2022/10/30 04:42:57;;;;;;;;;;;;;;;13.16;43.74;95799.31;4997818;28;20382;-68
2022/10/30 04:45:22;;;;;;;;;;;;;;;13.12;43.52;95803.41;4996701;28;19988;-67
2022/10/30 04:47:47;;;;;;;;;;;;;;;13.07;43.66;95795.13;4997121;28;20363;-68
2022/10/30 04:50:12;;;;;;;;;;;;;;;12.89;43.84;95799.00;4998130;28;19989;-68
2022/10/30 04:52:38;;;;;;;;;;;;;;;12.77;44.07;95795.16;4996515;28;19997;-67
2022/10/30 04:55:03;;;;;;;;;;;;;;;12.73;43.95;95793.88;4997624;28;20068;-68
2022/10/30 04:57:30;;;;;;;;;;;;;;;12.63;44.03;95789.69;4996496;28;20725;-68
2022/10/30 04:59:55;;;;;;;;;;;;;;;12.52;43.79;95792.84;4994706;28;20025;-67
2022/10/30 05:02:21;;;;;;;;;;;;;;;12.49;43.47;95787.84;4992851;28;20483;-67
2022/10/30 05:04:46;;;;;;;;;;;;;;;12.24;45.81;95788.97;4997176;28;19984;-68
2022/10/30 05:07:11;;;;;;;;;;;;;;;12.10;46.07;95789.81;4993787;28;20025;-68
2022/10/30 05:09:37;;;;;;;;;;;;;;;12.07;46.05;95784.84;4995176;28;19988;-67
2022/10/30 05:12:02;;;;;;;;;;;;;;;12.06;45.56;95797.34;4995656;28;19994;-67
2022/10/30 05:14:30;;;;;;;;;;;;;;;12.15;45.01;95793.59;4994856;28;19990;-68
2022/10/30 05:16:56;;;;;;;;;;;;;;;12.05;45.48;95802.81;4995121;28;20024;-67
2022/10/30 05:19:21;;;;;;;;;;;;;;;12.00;45.81;95798.06;4996020;28;19993;-67
2022/10/30 05:21:46;;;;;;;;;;;;;;;11.84;47.11;95802.53;4994927;28;20035;-67
2022/10/30 05:24:11;;;;;;;;;;;;;;;11.78;48.05;95797.94;4994829;28;20004;-67
2022/10/30 05:26:37;;;;;;;;;;;;;;;11.52;48.12;95799.13;4995344;28;20386;-67
2022/10/30 05:29:02;;;;;;;;;;;;;;;11.14;48.48;95807.94;4994846;28;19985;-67
2022/10/30 05:31:27;;;;;;;;;;;;;;;11.22;49.14;95804.38;4995008;28;20065;-67
2022/10/30 05:33:52;;;;;;;;;;;;;;;11.45;47.91;95799.03;4995363;28;20206;-67
2022/10/30 05:36:18;;;;;;;;;;;;;;;11.65;47.57;95798.53;4995029;28;19985;-67
2022/10/30 05:38:45;;;;;;;;;;;;;;;11.71;47.44;95799.66;4995352;28;19986;-67
2022/10/30 05:41:10;;;;;;;;;;;;;;;11.64;46.90;95802.22;4996595;28;20300;-68
2022/10/30 05:43:35;;;;;;;;;;;;;;;11.65;46.66;95803.88;4993965;28;20196;-67
2022/10/30 05:46:01;;;;;;;;;;;;;;;11.56;45.18;95797.78;4995498;28;19998;-67
2022/10/30 05:48:26;;;;;;;;;;;;;;;11.49;45.72;95796.84;4993919;28;20430;-67
2022/10/30 05:50:51;;;;;;;;;;;;;;;11.39;44.93;95789.06;4995342;28;20013;-67
2022/10/30 05:53:16;;;;;;;;;;;;;;;11.37;45.06;95789.28;4995546;28;20018;-67
2022/10/30 05:55:42;;;;;;;;;;;;;;;11.30;44.84;95788.34;4996152;28;20084;-68
2022/10/30 05:58:08;;;;;;;;;;;;;;;11.20;45.08;95785.06;4995954;28;20505;-67
2022/10/30 06:00:34;;;;;;;;;;;;;;;11.18;45.01;95787.09;4995921;28;20350;-67
2022/10/30 06:02:59;;;;;;;;;;;;;;;11.12;45.13;95784.13;4995989;28;20092;-67
2022/10/30 06:05:25;;;;;;;;;;;;;;;11.08;45.45;95788.13;4996305;28;19978;-68
2022/10/30 06:07:53;;;;;;;;;;;;;;;11.05;45.91;95799.13;4996263;28;20133;-67
2022/10/30 06:10:18;;;;;;;;;;;;;;;11.02;46.05;95793.31;4996735;28;20242;-67
2022/10/30 06:12:50;;;;;;;;;;;;;;;10.97;45.62;95788.53;4995472;28;20409;-68
2022/10/30 06:15:15;;;;;;;;;;;;;;;10.92;45.77;95794.41;4996001;28;19994;-67
2022/10/30 06:17:41;;;;;;;;;;;;;;;10.91;45.80;95799.91;4996794;28;20000;-67
2022/10/30 06:20:06;;;;;;;;;;;;;;;10.85;45.91;95794.25;4996596;28;19978;-67
2022/10/30 06:22:31;;;;;;;;;;;;;;;10.83;46.16;95806.94;4995946;28;20005;-67
2022/10/30 06:24:56;;;;;;;;;;;;;;;10.78;46.43;95798.59;4996084;28;19978;-67
2022/10/30 06:27:22;;;;;;;;;;;;;;;10.78;46.52;95798.59;4995530;28;20064;-67
2022/10/30 06:29:47;;;;;;;;;;;;;;;10.77;46.55;95799.63;4996489;28;19978;-67
2022/10/30 06:32:13;;;;;;;;;;;;;;;10.76;46.74;95803.28;4995820;28;20070;-68
2022/10/30 06:34:38;;;;;;;;;;;;;;;10.80;46.02;95790.44;4996754;28;20427;-68
2022/10/30 06:37:03;;;;;;;;;;;;;;;10.82;46.09;95793.78;4995636;28;19986;-67
2022/10/30 06:39:28;;;;;;;;;;;;;;;10.84;46.17;95803.25;4994147;28;20059;-67
2022/10/30 06:41:54;;;;;;;;;;;;;;;10.85;46.18;95799.56;4995998;28;20409;-67
2022/10/30 06:44:19;;;;;;;;;;;;;;;10.82;46.65;95815.09;4996106;28;20040;-67
2022/10/30 06:46:44;;;;;;;;;;;;;;;10.82;46.60;95799.94;4995341;28;20037;-67
2022/10/30 06:49:09;;;;;;;;;;;;;;;10.86;46.83;95800.41;4996877;28;20036;-68
2022/10/30 06:51:35;;;;;;;;;;;;;;;10.93;47.00;95803.19;4994956;28;20052;-67
2022/10/30 06:54:00;;;;;;;;;;;;;;;10.97;47.30;95807.16;4998025;28;20001;-68
2022/10/30 06:56:25;;;;;;;;;;;;;;;11.03;47.32;95800.31;4999335;28;19982;-67
2022/10/30 06:58:50;;;;;;;;;;;;;;;11.16;47.28;95802.41;4998783;28;20725;-67
2022/10/30 07:01:16;;;;;;;;;;;;;;;11.19;47.51;95799.41;4999403;28;20120;-67
2022/10/30 07:03:41;;;;;;;;;;;;;;;11.19;48.36;95792.22;4997495;28;19989;-67
2022/10/30 07:06:07;;;;;;;;;;;;;;;11.21;48.36;95803.56;4998356;28;20048;-67
2022/10/30 07:08:32;;;;;;;;;;;;;;;11.29;48.54;95789.31;4999485;28;19985;-67
2022/10/30 07:10:57;;;;;;;;;;;;;;;11.31;48.80;95791.81;4998523;28;20031;-68
2022/10/30 07:13:22;;;;;;;;;;;;;;;11.41;48.83;95787.06;4998848;28;19980;-67
2022/10/30 07:15:48;;;;;;;;;;;;;;;11.37;49.02;95791.94;4998281;28;20494;-67
2022/10/30 07:18:13;;;;;;;;;;;;;;;11.41;50.69;95792.41;4997745;28;20083;-67
2022/10/30 07:20:38;;;;;;;;;;;;;;;11.49;50.13;95795.00;4999156;28;20427;-67
2022/10/30 07:23:03;;;;;;;;;;;;;;;11.73;49.63;95803.78;4999043;28;20433;-67
2022/10/30 07:25:29;;;;;;;;;;;;;;;11.69;49.64;95796.34;4998707;28;20139;-67
2022/10/30 07:27:54;;;;;;;;;;;;;;;11.67;48.97;95796.53;4998953;28;19996;-67
2022/10/30 07:30:20;;;;;;;;;;;;;;;12.07;48.51;95800.84;4999371;28;20025;-67
2022/10/30 07:32:45;;;;;;;;;;;;;;;12.35;48.01;95803.72;4999618;28;20019;-67
2022/10/30 07:35:12;;;;;;;;;;;;;;;12.63;47.14;95804.88;4998666;28;20494;-67
2022/10/30 07:37:37;;;;;;;;;;;;;;;12.83;46.85;95798.94;4994814;28;19988;-67
2022/10/30 07:40:03;;;;;;;;;;;;;;;12.99;46.62;95805.91;4998495;28;19962;-68
2022/10/30 07:42:28;;;;;;;;;;;;;;;13.15;46.32;95802.19;4998473;28;20068;-67
2022/10/30 07:44:53;;;;;;;;;;;;;;;13.33;45.99;95799.09;4998740;28;19974;-67
2022/10/30 07:47:18;;;;;;;;;;;;;;;13.44;45.60;95803.91;4997865;28;20437;-67
2022/10/30 07:49:44;;;;;;;;;;;;;;;13.62;45.42;95807.16;4998249;28;20032;-68
2022/10/30 07:52:09;;;;;;;;;;;;;;;13.61;45.44;95801.00;4997409;28;20028;-68
2022/10/30 07:54:34;;;;;;;;;;;;;;;13.94;44.86;95802.31;4975942;28;20033;-68
2022/10/30 07:56:59;;;;;;;;;;;;;;;14.03;44.33;95802.94;4998760;28;20099;-68
2022/10/30 07:59:25;;;;;;;;;;;;;;;14.09;44.57;95807.53;4997300;28;19994;-67
2022/10/30 08:01:50;;;;;;;;;;;;;;;14.13;44.16;95813.31;4997529;28;20065;-67
2022/10/30 08:04:15;;;;;;;;;;;;;;;14.40;43.83;95808.97;4997882;28;20020;-68
2022/10/30 08:06:40;;;;;;;;;;;;;;;14.57;43.53;95805.94;4997972;28;20347;-68
2022/10/30 08:09:05;;;;;;;;;;;;;;;14.71;43.36;95804.97;4997953;28;20040;-67
2022/10/30 08:11:31;;;;;;;;;;;;;;;14.95;42.95;95805.50;4995989;28;20045;-67
2022/10/30 08:13:56;;;;;;;;;;;;;;;15.10;42.76;95815.25;4998200;28;19993;-67
2022/10/30 08:16:21;;;;;;;;;;;;;;;15.36;42.25;95816.31;4997984;28;20397;-67
2022/10/30 08:18:47;;;;;;;;;;;;;;;15.63;41.91;95821.75;4997987;28;20569;-68
2022/10/30 08:21:12;;;;;;;;;;;;;;;15.82;41.83;95813.91;4997434;28;20056;-67
2022/10/30 08:23:37;;;;;;;;;;;;;;;15.99;40.99;95822.38;4997089;28;19988;-67
2022/10/30 08:26:02;;;;;;;;;;;;;;;16.19;40.57;95818.84;4997076;28;19993;-67
2022/10/30 08:28:28;;;;;;;;;;;;;;;16.23;40.34;95815.53;4998875;28;19974;-67
2022/10/30 08:30:53;;;;;;;;;;;;;;;16.54;39.84;95820.44;4997484;28;19990;-67
2022/10/30 08:33:19;;;;;;;;;;;;;;;16.79;39.23;95817.06;4998100;28;19994;-67
2022/10/30 08:35:50;;;;;;;;;;;;;;;16.65;39.13;95811.72;4997203;28;20155;-67
2022/10/30 08:38:16;;;;;;;;;;;;;;;16.99;37.91;95811.59;4996021;28;19989;-68
2022/10/30 08:40:41;;;;;;;;;;;;;;;17.25;38.10;95810.66;4996595;28;20042;-67
2022/10/30 08:43:06;;;;;;;;;;;;;;;17.34;37.75;95808.53;4997042;28;19996;-67
2022/10/30 08:45:31;;;;;;;;;;;;;;;17.52;37.03;95815.88;4997593;28;20556;-67
2022/10/30 08:47:57;;;;;;;;;;;;;;;17.88;36.60;95815.44;4997396;28;19970;-67
2022/10/30 08:50:23;;;;;;;;;;;;;;;17.91;36.13;95815.81;4996846;28;20452;-67
2022/10/30 08:52:48;;;;;;;;;;;;;;;18.05;36.08;95815.66;4997832;28;20678;-67
2022/10/30 08:55:13;;;;;;;;;;;;;;;18.03;36.20;95810.53;4996263;28;20003;-68
2022/10/30 08:57:38;;;;;;;;;;;;;;;18.34;36.15;95815.19;4995558;28;20239;-68
2022/10/30 09:00:04;;;;;;;;;;;;;;;18.58;35.39;95815.38;4997165;28;20685;-68
2022/10/30 09:02:29;;;;;;;;;;;;;;;18.62;35.74;95816.59;4996836;28;20042;-67
2022/10/30 09:04:54;;;;;;;;;;;;;;;18.56;35.23;95812.91;4998393;28;20466;-68
2022/10/30 09:07:19;;;;;;;;;;;;;;;18.85;35.45;95806.97;4997892;28;20034;-67
2022/10/30 09:09:45;;;;;;;;;;;;;;;18.98;35.19;95804.13;4998022;28;19984;-67
2022/10/30 09:12:10;;;;;;;;;;;;;;;18.77;34.35;95803.53;4997940;28;20485;-68
2022/10/30 09:14:35;;;;;;;;;;;;;;;18.62;34.80;95811.19;4998770;28;19990;-68
2022/10/30 09:17:00;;;;;;;;;;;;;;;19.02;34.86;95810.72;4996225;28;19975;-67
2022/10/30 09:19:27;;;;;;;;;;;;;;;19.27;34.98;95807.09;4996205;28;20453;-67
2022/10/30 09:21:52;;;;;;;;;;;;;;;19.29;33.39;95814.94;4996747;28;20053;-67
2022/10/30 09:24:19;;;;;;;;;;;;;;;19.58;33.95;95809.78;4996441;28;20357;-67
2022/10/30 09:26:44;;;;;;;;;;;;;;;19.50;33.33;95815.47;4994827;28;19994;-67
2022/10/30 09:29:09;;;;;;;;;;;;;;;19.76;33.88;95818.84;4997307;28;19970;-67
2022/10/30 09:31:34;;;;;;;;;;;;;;;19.94;34.05;95815.22;4995270;28;20012;-67
2022/10/30 09:34:00;;;;;;;;;;;;;;;20.04;33.47;95823.59;4987008;28;19986;-67
2022/10/30 09:36:25;;;;;;;;;;;;;;;20.15;33.60;95815.75;4996303;28;19970;-67
2022/10/30 09:38:50;;;;;;;;;;;;;;;20.39;33.32;95818.44;4995760;28;20003;-68
2022/10/30 09:41:15;;;;;;;;;;;;;;;20.55;33.29;95820.41;4994736;28;19982;-68
2022/10/30 09:43:46;;;;;;;;;;;;;;;20.45;33.13;95809.34;4996438;28;20119;-67
2022/10/30 09:46:11;;;;;;;;;;;;;;;20.67;32.59;95814.19;4996153;28;20264;-67
2022/10/30 09:48:37;;;;;;;;;;;;;;;20.79;32.36;95809.56;4996506;28;19964;-67
2022/10/30 09:51:02;;;;;;;;;;;;;;;20.96;32.56;95808.81;4996002;28;20081;-68
2022/10/30 09:53:29;;;;;;;;;;;;;;;20.73;32.81;95818.63;4996860;28;19986;-67
2022/10/30 09:56:00;;;;;;;;;;;;;;;20.83;32.12;95805.31;4979228;28;19996;-67
2022/10/30 09:58:28;;;;;;;;;;;;;;;21.08;31.36;95803.34;4994845;28;19993;-67
2022/10/30 10:01:16;;;;;;;;;;;;;;;21.03;31.07;95808.66;4990770;28;20019;-67
2022/10/30 10:03:51;;;;;;;;;;;;;;;21.28;31.36;95808.34;4988593;28;20068;-67
2022/10/30 10:06:17;;;;;;;;;;;;;;;21.32;30.97;95809.53;4979097;28;20023;-68
2022/10/30 10:08:47;;;;;;;;;;;;;;;21.38;31.13;95805.84;4996919;28;20002;-68
2022/10/30 10:11:13;;;;;;;;;;;;;;;20.27;31.39;95818.41;4978014;28;19997;-68
2022/10/30 10:13:43;;;;;;;;;;;;;;;20.98;31.33;95804.78;4980332;28;20579;-67
2022/10/30 10:16:31;;;;;;;;;;;;;;;19.67;31.98;95818.34;4997345;28;20056;-68
2022/10/30 10:19:20;;;;;;;;;;;;;;;20.19;32.24;95819.63;4987547;28;19987;-68
2022/10/30 10:21:46;;;;;;;;;;;;;;;20.94;31.41;95810.94;4977623;28;19968;-68
2022/10/30 10:24:15;;;;;;;;;;;;;;;21.06;30.53;95813.59;4980323;28;20162;-68
2022/10/30 10:26:52;;;;;;;;;;;;;;;20.06;32.23;95826.88;4995117;28;20496;-67
2022/10/30 10:29:41;;;;;;;;;;;;;;;19.96;31.82;95818.53;5000613;28;19960;-68
2022/10/30 10:32:18;;;;;;;;;;;;;;;20.35;32.11;95815.34;4992163;28;19991;-68
2022/10/30 10:34:59;;;;;;;;;;;;;;;20.32;31.63;95816.66;4982373;28;20468;-67
2022/10/30 10:37:27;;;;;;;;;;;;;;;20.17;31.89;95809.03;4999373;28;19962;-67
2022/10/30 10:39:58;;;;;;;;;;;;;;;20.38;31.85;95809.47;5000081;28;20353;-68
2022/10/30 10:42:28;;;;;;;;;;;;;;;20.79;31.31;95803.31;4998072;28;20449;-68
2022/10/30 10:44:53;;;;;;;;;;;;;;;20.96;30.49;95803.38;4999432;28;19986;-67
2022/10/30 10:47:37;;;;;;;;;;;;;;;21.05;29.71;95807.38;5000406;28;20562;-68
2022/10/30 10:50:18;;;;;;;;;;;;;;;21.30;29.12;95806.22;4999042;28;20433;-67
2022/10/30 10:52:54;;;;;;;;;;;;;;;20.77;29.65;95800.84;4991368;28;20372;-70
2022/10/30 10:55:21;;;;;;;;;;;;;;;21.28;29.24;95804.84;4998184;28;20035;-68
2022/10/30 10:57:46;;;;;;;;;;;;;;;21.66;29.37;95799.78;4994042;28;20490;-68
2022/10/30 11:00:11;;;;;;;;;;;;;;;21.76;28.24;95797.28;4999401;28;19965;-68
2022/10/30 11:02:39;;;;;;;;;;;;;;;21.87;27.50;95796.38;4998592;28;19988;-67
2022/10/30 11:05:23;;;;;;;;;;;;;;;21.62;27.36;95800.28;4982476;28;20519;-68
2022/10/30 11:07:48;;;;;;;;;;;;;;;21.54;27.91;95800.69;4999267;28;20239;-67
2022/10/30 11:10:14;;;;;;;;;;;;;;;21.40;27.52;95802.06;4999189;28;19986;-67
2022/10/30 11:12:40;;;;;;;;;;;;;;;21.89;27.24;95799.63;4998203;28;19984;-67
2022/10/30 11:15:09;;;;;;;;;;;;;;;21.57;28.50;95789.38;4999288;28;20421;-67
2022/10/30 11:17:37;;;;;;;;;;;;;;;21.97;27.65;95789.47;4998626;28;20082;-67
2022/10/30 11:20:11;;;;;;;;;;;;;;;21.71;27.32;95791.75;4982846;28;19955;-67
2022/10/30 11:22:37;;;;;;;;;;;;;;;21.95;25.89;95786.19;4998331;28;19983;-67
2022/10/30 11:25:21;;;;;;;;;;;;;;;22.30;26.16;95778.84;4983346;28;20370;-68
2022/10/30 11:27:47;;;;;;;;;;;;;;;22.45;25.64;95780.94;4998554;28;19977;-67
2022/10/30 11:30:16;;;;;;;;;;;;;;;22.51;25.89;95777.22;4998867;28;19974;-67
2022/10/30 11:32:42;;;;;;;;;;;;;;;22.78;25.41;95773.78;5000269;28;19999;-67
2022/10/30 11:35:07;;;;;;;;;;;;;;;22.84;25.54;95785.53;4998630;28;19976;-67
2022/10/30 11:37:33;;;;;;;;;;;;;;;22.33;27.94;95781.06;4997721;28;19973;-67
2022/10/30 11:40:18;;;;;;;;;;;;;;;23.09;25.35;95773.31;4998073;28;19960;-67
2022/10/30 11:42:49;;;;;;;;;;;;;;;23.22;25.15;95777.53;4997497;28;20100;-67
2022/10/30 11:45:14;;;;;;;;;;;;;;;23.49;25.16;95779.44;4996777;28;20198;-67
2022/10/30 11:47:40;;;;;;;;;;;;;;;23.20;26.14;95776.97;4998403;28;19990;-67
2022/10/30 11:50:05;;;;;;;;;;;;;;;23.73;24.95;95770.94;4982113;28;20068;-67
2022/10/30 11:52:34;;;;;;;;;;;;;;;22.56;24.76;95784.66;4998664;28;20362;-67
2022/10/30 11:55:18;;;;;;;;;;;;;;;22.53;25.30;95777.81;4998007;28;19966;-67
2022/10/30 11:57:44;;;;;;;;;;;;;;;23.94;23.08;95785.53;4979878;28;19971;-67
2022/10/30 12:00:19;;;;;;;;;;;;;;;24.59;22.15;95784.59;4997019;28;20053;-66
2022/10/30 12:02:45;;;;;;;;;;;;;;;25.71;22.64;95776.19;4980069;28;20001;-67
2022/10/30 12:05:31;;;;;;;;;;;;;;;27.69;19.20;95775.53;4998243;28;20459;-67
2022/10/30 12:08:05;;;;;;;;;;;;;;;28.39;18.43;95775.44;4995769;28;20026;-67
2022/10/30 12:10:30;;;;;;;;;;;;;;;31.18;17.01;95778.75;4998488;28;19951;-67
2022/10/30 12:12:56;;;;;;;;;;;;;;;32.78;15.44;95767.63;4981101;28;20490;-67
2022/10/30 12:15:24;;;;;;;;;;;;;;;35.11;14.79;95761.03;4997615;28;20452;-67
2022/10/30 12:17:50;;;;;;;;;;;;;;;36.29;12.14;95758.56;4980810;28;20075;-67
2022/10/30 12:20:15;;;;;;;;;;;;;;;34.74;12.79;95766.31;4999350;28;20329;-68
2022/10/30 12:22:41;;;;;;;;;;;;;;;35.86;12.16;95769.75;4998641;28;20235;-67
2022/10/30 12:25:13;;;;;;;;;;;;;;;36.19;12.76;95766.16;4999341;28;20722;-67
2022/10/30 12:27:38;;;;;;;;;;;;;;;35.65;11.56;95761.50;4991615;28;19961;-68
2022/10/30 12:30:04;;;;;;;;;;;;;;;35.48;12.10;95766.00;4993304;28;19952;-67
2022/10/30 12:32:55;;;;;;;;;;;;;;;33.13;13.91;95761.38;4998958;28;20321;-68
2022/10/30 12:35:24;;;;;;;;;;;;;;;32.93;14.70;95755.31;4996139;28;19929;-68
2022/10/30 12:37:49;;;;;;;;;;;;;;;32.91;14.80;95754.00;4976270;28;19921;-68
2022/10/30 12:40:19;;;;;;;;;;;;;;;33.07;14.58;95755.19;4980270;28;20407;-67
2022/10/30 12:42:53;;;;;;;;;;;;;;;32.96;14.45;95753.88;4977885;28;20337;-68
2022/10/30 12:45:19;;;;;;;;;;;;;;;31.65;15.15;95753.75;4991586;28;19922;-67
2022/10/30 12:47:48;;;;;;;;;;;;;;;31.39;15.21;95748.84;4979022;28;19936;-68